createdAt,value
2022-11-08T00:02:22.210Z,13.18
2022-11-08T00:04:49.062Z,12.05
2022-11-08T00:07:34.838Z,12.55
2022-11-08T00:10:20.157Z,12.50
2022-11-08T00:13:05.642Z,14.18
2022-11-08T00:15:39.019Z,12.35
2022-11-08T00:18:06.901Z,11.05
2022-11-08T00:20:33.801Z,12.80
2022-11-08T00:23:00.853Z,11.63
2022-11-08T00:25:27.627Z,11.27
2022-11-08T00:27:54.649Z,11.10
2022-11-08T00:30:21.416Z,11.95
2022-11-08T00:32:48.512Z,11.05
2022-11-08T00:35:15.283Z,11.77
2022-11-08T00:37:42.340Z,12.35
2022-11-08T00:40:09.946Z,10.90
2022-11-08T00:42:36.984Z,11.32
2022-11-08T00:45:04.084Z,11.18
2022-11-08T00:47:31.096Z,11.15
2022-11-08T00:49:57.809Z,11.43
2022-11-08T00:52:24.857Z,11.23
2022-11-08T00:54:51.960Z,11.35
2022-11-08T00:57:22.255Z,11.20
2022-11-08T00:59:51.372Z,10.13
2022-11-08T01:02:18.526Z,11.00
2022-11-08T01:04:45.292Z,10.05
2022-11-08T01:07:12.316Z,10.38
2022-11-08T01:09:39.049Z,11.00
2022-11-08T01:12:06.215Z,10.95
2022-11-08T01:14:32.943Z,10.40
2022-11-08T01:16:59.958Z,9.25
2022-11-08T01:19:26.704Z,9.13
2022-11-08T01:21:53.780Z,9.88
2022-11-08T01:24:21.291Z,10.05
2022-11-08T01:26:50.789Z,9.15
2022-11-08T01:29:17.544Z,9.07
2022-11-08T01:31:44.593Z,9.40
2022-11-08T01:34:11.319Z,9.45
2022-11-08T01:36:38.431Z,9.80
2022-11-08T01:39:05.147Z,9.52
2022-11-08T01:41:32.175Z,9.15
2022-11-08T01:43:59.273Z,9.65
2022-11-08T01:46:33.332Z,8.63
2022-11-08T01:49:19.801Z,9.57
2022-11-08T01:51:50.746Z,8.32
2022-11-08T01:54:27.240Z,8.50
2022-11-08T01:56:54.495Z,8.00
2022-11-08T01:59:21.203Z,8.50
2022-11-08T02:01:48.320Z,8.57
2022-11-08T02:04:15.154Z,8.23
2022-11-08T02:06:42.295Z,9.25
2022-11-08T02:09:09.722Z,8.05
2022-11-08T02:11:36.760Z,8.63
2022-11-08T02:14:04.466Z,9.07
2022-11-08T02:16:31.510Z,8.23
2022-11-08T02:18:58.240Z,8.98
2022-11-08T02:21:33.490Z,7.60
2022-11-08T02:24:01.196Z,8.43
2022-11-08T02:26:29.394Z,8.45
2022-11-08T02:28:56.142Z,7.55
2022-11-08T02:31:23.175Z,8.30
2022-11-08T02:33:49.921Z,8.40
2022-11-08T02:36:19.339Z,7.32
2022-11-08T02:38:48.237Z,7.80
2022-11-08T02:41:15.288Z,8.32
2022-11-08T02:43:42.011Z,8.88
2022-11-08T02:46:09.389Z,8.98
2022-11-08T02:48:36.127Z,9.43
2022-11-08T02:51:03.223Z,10.32
2022-11-08T02:53:29.999Z,10.23
2022-11-08T02:55:57.014Z,10.75
2022-11-08T02:58:23.795Z,10.23
2022-11-08T03:00:50.901Z,10.80
2022-11-08T03:03:17.586Z,10.20
2022-11-08T03:05:44.814Z,11.10
2022-11-08T03:08:11.521Z,11.00
2022-11-08T03:10:38.525Z,10.75
2022-11-08T03:13:05.392Z,10.25
2022-11-08T03:15:32.481Z,10.45
2022-11-08T03:17:59.978Z,11.38
2022-11-08T03:20:32.122Z,10.82
2022-11-08T03:23:00.630Z,10.13
2022-11-08T03:25:27.690Z,10.30
2022-11-08T03:27:54.478Z,11.55
2022-11-08T03:30:21.868Z,10.63
2022-11-08T03:32:49.838Z,10.82
2022-11-08T03:35:17.013Z,10.07
2022-11-08T03:37:53.258Z,11.00
2022-11-08T03:40:20.612Z,9.85
2022-11-08T03:42:47.424Z,10.85
2022-11-08T03:45:15.272Z,10.43
2022-11-08T03:47:46.112Z,10.60
2022-11-08T03:50:13.964Z,10.23
2022-11-08T03:52:48.592Z,10.40
2022-11-08T03:55:16.384Z,10.48
2022-11-08T03:57:43.313Z,11.65
2022-11-08T04:00:11.276Z,10.95
2022-11-08T04:02:38.276Z,10.90
2022-11-08T04:05:06.419Z,10.43
2022-11-08T04:07:33.164Z,10.43
2022-11-08T04:10:00.212Z,10.85
2022-11-08T04:12:45.334Z,9.98
2022-11-08T04:15:16.503Z,10.32
2022-11-08T04:18:02.228Z,10.32
2022-11-08T04:20:47.873Z,10.70
2022-11-08T04:23:15.180Z,10.88
2022-11-08T04:25:42.266Z,10.82
2022-11-08T04:28:09.098Z,10.80
2022-11-08T04:30:36.288Z,12.35
2022-11-08T04:33:03.775Z,10.85
2022-11-08T04:35:31.070Z,11.98
2022-11-08T04:38:01.592Z,10.88
2022-11-08T04:40:29.987Z,11.48
2022-11-08T04:42:56.692Z,11.43
2022-11-08T04:45:23.743Z,11.07
2022-11-08T04:47:50.465Z,10.23
2022-11-08T04:50:17.544Z,10.23
2022-11-08T04:52:44.964Z,10.10
2022-11-08T04:55:11.992Z,11.00
2022-11-08T04:57:38.700Z,10.95
2022-11-08T05:00:06.891Z,10.95
2022-11-08T05:02:33.744Z,11.65
2022-11-08T05:05:00.925Z,11.35
2022-11-08T05:07:29.060Z,11.38
2022-11-08T05:09:59.959Z,10.63
2022-11-08T05:12:29.173Z,11.55
2022-11-08T05:14:56.168Z,12.48
2022-11-08T05:17:22.876Z,11.57
2022-11-08T05:20:08.552Z,11.07
2022-11-08T05:22:53.981Z,11.93
2022-11-08T05:25:21.028Z,11.32
2022-11-08T05:27:47.795Z,11.25
2022-11-08T05:30:14.864Z,10.93
2022-11-08T05:32:41.576Z,11.73
2022-11-08T05:35:08.735Z,10.80
2022-11-08T05:37:35.436Z,10.77
2022-11-08T05:40:02.471Z,11.23
2022-11-08T05:42:29.453Z,11.55
2022-11-08T05:44:56.607Z,11.00
2022-11-08T05:47:23.351Z,11.15
2022-11-08T05:49:50.395Z,12.50
2022-11-08T05:52:17.113Z,11.18
2022-11-08T05:54:44.179Z,11.73
2022-11-08T05:57:10.856Z,11.05
2022-11-08T05:59:37.960Z,10.98
2022-11-08T06:02:04.894Z,10.32
2022-11-08T06:04:32.223Z,11.52
2022-11-08T06:06:58.912Z,10.45
2022-11-08T06:09:25.915Z,10.85
2022-11-08T06:11:52.807Z,10.77
2022-11-08T06:14:19.887Z,10.88
2022-11-08T06:16:46.598Z,10.00
2022-11-08T06:19:13.623Z,10.93
2022-11-08T06:21:40.323Z,11.02
2022-11-08T06:24:07.779Z,11.30
2022-11-08T06:26:34.858Z,12.30
2022-11-08T06:29:01.927Z,12.05
2022-11-08T06:31:28.713Z,11.23
2022-11-08T06:33:55.703Z,12.73
2022-11-08T06:36:22.406Z,11.93
2022-11-08T06:38:53.999Z,11.43
2022-11-08T06:41:20.794Z,12.10
2022-11-08T06:43:48.593Z,11.63
2022-11-08T06:46:15.612Z,12.27
2022-11-08T06:48:42.696Z,12.05
2022-11-08T06:51:09.418Z,11.70
2022-11-08T06:53:36.463Z,10.90
2022-11-08T06:56:03.383Z,10.95
2022-11-08T06:58:30.870Z,11.02
2022-11-08T07:00:57.638Z,10.77
2022-11-08T07:03:24.748Z,10.80
2022-11-08T07:05:51.499Z,11.23
2022-11-08T07:08:23.656Z,12.48
2022-11-08T07:10:50.874Z,11.20
2022-11-08T07:13:18.086Z,10.65
2022-11-08T07:15:45.374Z,12.73
2022-11-08T07:18:13.396Z,12.95
2022-11-08T07:20:40.480Z,12.45
2022-11-08T07:23:08.186Z,11.90
2022-11-08T07:25:35.315Z,13.23
2022-11-08T07:28:06.358Z,13.13
2022-11-08T07:30:33.499Z,13.82
2022-11-08T07:33:00.650Z,13.48
2022-11-08T07:35:30.126Z,13.20
2022-11-08T07:37:57.298Z,13.48
2022-11-08T07:40:24.259Z,12.85
2022-11-08T07:45:38.192Z,11.45
2022-11-08T07:48:11.491Z,12.18
2022-11-08T07:50:39.582Z,10.73
2022-11-08T07:53:06.644Z,12.13
2022-11-08T07:55:35.949Z,11.35
2022-11-08T07:58:03.043Z,11.10
2022-11-08T08:00:30.455Z,13.23
2022-11-08T08:02:59.033Z,12.07
2022-11-08T08:05:27.596Z,11.32
2022-11-08T08:07:58.740Z,11.40
2022-11-08T08:10:26.195Z,11.60
2022-11-08T08:12:53.373Z,11.13
2022-11-08T08:15:20.178Z,11.40
2022-11-08T08:17:47.266Z,10.07
2022-11-08T08:20:14.037Z,10.05
2022-11-08T08:22:47.807Z,11.25
2022-11-08T08:25:14.672Z,9.95
2022-11-08T08:27:52.539Z,8.90
2022-11-08T08:30:19.523Z,10.15
2022-11-08T08:32:53.507Z,10.23
2022-11-08T08:35:24.550Z,10.20
2022-11-08T08:37:51.605Z,9.68
2022-11-08T08:40:18.386Z,9.80
2022-11-08T08:42:45.402Z,9.93
2022-11-08T08:45:14.855Z,9.07
2022-11-08T08:47:42.303Z,10.13
2022-11-08T08:50:09.210Z,10.65
2022-11-08T08:52:36.237Z,9.98
2022-11-08T08:55:02.970Z,11.25
2022-11-08T08:57:30.042Z,11.63
2022-11-08T09:02:44.426Z,13.95
2022-11-08T09:05:12.159Z,13.10
2022-11-08T09:07:39.494Z,14.18
2022-11-08T09:10:06.809Z,13.02
2022-11-08T09:12:34.162Z,14.30
2022-11-08T09:15:01.047Z,13.27
2022-11-08T09:17:28.574Z,13.68
2022-11-08T09:19:57.369Z,15.02
2022-11-08T09:22:24.835Z,14.82
2022-11-08T09:24:51.617Z,15.07
2022-11-08T09:27:18.598Z,14.25
2022-11-08T09:29:45.293Z,12.80
2022-11-08T09:32:12.440Z,12.68
2022-11-08T09:34:39.130Z,12.82
2022-11-08T09:37:06.105Z,12.75
2022-11-08T09:39:32.881Z,12.85
2022-11-08T09:42:11.706Z,13.48
2022-11-08T09:44:53.470Z,11.60
2022-11-08T09:47:23.750Z,12.18
2022-11-08T09:49:59.959Z,11.10
2022-11-08T09:52:27.245Z,11.90
2022-11-08T09:55:35.705Z,10.65
2022-11-08T09:58:05.726Z,10.35
2022-11-08T10:00:34.102Z,10.05
2022-11-08T10:03:02.268Z,10.00
2022-11-08T10:05:34.945Z,10.15
2022-11-08T10:08:08.093Z,9.70
2022-11-08T10:10:40.602Z,9.80
2022-11-08T10:13:16.902Z,9.55
2022-11-08T10:15:49.609Z,8.10
2022-11-08T10:18:32.834Z,8.50
2022-11-08T10:21:18.360Z,8.60
2022-11-08T10:23:48.267Z,8.65
2022-11-08T10:26:24.174Z,8.75
2022-11-08T10:28:56.236Z,8.02
2022-11-08T10:31:22.992Z,9.13
2022-11-08T10:33:56.267Z,8.40
2022-11-08T10:36:38.416Z,8.30
2022-11-08T10:39:11.321Z,7.53
2022-11-08T10:41:48.426Z,8.15
2022-11-08T10:44:21.077Z,7.82
2022-11-08T10:46:53.946Z,7.53
2022-11-08T10:49:37.381Z,7.57
2022-11-08T10:52:18.296Z,7.53
2022-11-08T10:54:53.354Z,6.85
2022-11-08T10:57:32.289Z,7.70
2022-11-08T11:00:22.722Z,6.32
2022-11-08T11:02:53.012Z,6.60
2022-11-08T11:05:23.683Z,6.38
2022-11-08T11:07:57.660Z,6.63
2022-11-08T11:10:32.652Z,6.70
2022-11-08T11:13:13.067Z,6.15
2022-11-08T11:15:46.602Z,6.13
2022-11-08T11:18:48.048Z,5.65
2022-11-08T11:21:15.746Z,5.82
2022-11-08T11:23:46.428Z,5.78
2022-11-08T11:26:34.423Z,5.90
2022-11-08T11:29:04.774Z,5.60
2022-11-08T11:31:36.663Z,5.13
2022-11-08T11:34:19.068Z,4.80
2022-11-08T11:36:53.419Z,5.10
2022-11-08T11:39:34.486Z,5.03
2022-11-08T11:42:31.152Z,4.25
2022-11-08T11:45:06.519Z,4.38
2022-11-08T11:47:59.563Z,4.95
2022-11-08T11:50:34.397Z,4.40
2022-11-08T11:53:04.961Z,4.55
2022-11-08T11:55:38.331Z,3.72
2022-11-08T11:58:14.211Z,4.15
2022-11-08T12:00:42.841Z,3.78
2022-11-08T12:03:18.862Z,3.92
2022-11-08T12:06:18.305Z,4.10
2022-11-08T12:08:54.102Z,4.47
2022-11-08T12:11:32.974Z,4.30
2022-11-08T12:14:24.548Z,4.63
2022-11-08T12:17:19.539Z,5.18
2022-11-08T12:20:05.969Z,6.07
2022-11-08T12:22:45.308Z,6.05
2022-11-08T12:25:30.492Z,6.03
2022-11-08T12:28:10.520Z,6.38
2022-11-08T12:30:46.400Z,7.40
2022-11-08T12:33:22.389Z,6.63
2022-11-08T12:36:23.114Z,6.35
2022-11-08T12:39:05.377Z,7.22
2022-11-08T12:41:34.551Z,6.85
2022-11-08T12:44:04.405Z,7.65
2022-11-08T12:46:33.480Z,7.47
2022-11-08T12:49:27.020Z,6.75
2022-11-08T12:52:12.013Z,7.32
2022-11-08T12:54:41.212Z,7.25
2022-11-08T12:57:12.796Z,7.28
2022-11-08T12:59:52.022Z,7.22
2022-11-08T13:02:21.848Z,7.05
2022-11-08T13:05:01.031Z,7.45
2022-11-08T13:08:01.219Z,6.78
2022-11-08T13:10:35.545Z,7.00
2022-11-08T13:13:18.775Z,6.75
2022-11-08T13:16:07.887Z,7.00
2022-11-08T13:18:53.546Z,6.43
2022-11-08T13:21:34.298Z,7.30
2022-11-08T13:24:30.818Z,6.60
2022-11-08T13:26:59.383Z,8.43
2022-11-08T13:29:29.340Z,7.65
2022-11-08T13:31:56.384Z,6.80
2022-11-08T13:34:55.799Z,7.35
2022-11-08T13:37:43.248Z,7.47
2022-11-08T13:40:13.067Z,7.20
2022-11-08T13:42:55.415Z,7.78
2022-11-08T13:45:29.550Z,8.07
2022-11-08T13:48:01.615Z,7.13
2022-11-08T13:50:34.379Z,8.13
2022-11-08T13:53:01.559Z,7.10
2022-11-08T13:55:43.728Z,7.65
2022-11-08T13:58:35.746Z,7.05
2022-11-08T14:01:03.110Z,6.68
2022-11-08T14:03:33.322Z,7.13
2022-11-08T14:06:06.286Z,6.50
2022-11-08T14:09:10.651Z,6.90
2022-11-08T14:11:38.547Z,7.05
2022-11-08T14:14:08.513Z,7.55
2022-11-08T14:16:46.641Z,7.38
2022-11-08T14:19:32.822Z,7.13
2022-11-08T14:22:01.785Z,7.47
2022-11-08T14:24:30.667Z,9.27
2022-11-08T14:26:57.391Z,8.82
2022-11-08T14:29:24.778Z,7.10
2022-11-08T14:32:03.870Z,7.50
2022-11-08T14:34:33.261Z,8.73
2022-11-08T14:37:00.155Z,8.38
2022-11-08T14:39:34.565Z,8.50
2022-11-08T14:42:02.357Z,8.35
2022-11-08T14:44:29.550Z,8.20
2022-11-08T14:46:56.381Z,8.65
2022-11-08T14:49:33.220Z,9.02
2022-11-08T14:52:20.029Z,9.18
2022-11-08T14:54:47.486Z,8.95
2022-11-08T14:57:31.472Z,9.35
2022-11-08T14:59:58.812Z,10.77
2022-11-08T15:02:25.642Z,10.10
2022-11-08T15:04:52.806Z,9.38
2022-11-08T15:07:19.820Z,10.30
2022-11-08T15:09:46.856Z,10.93
2022-11-08T15:12:15.843Z,10.38
2022-11-08T15:14:52.439Z,11.52
2022-11-08T15:17:36.396Z,10.75
2022-11-08T15:20:15.364Z,10.32
2022-11-08T15:22:44.212Z,12.15
2022-11-08T15:25:14.382Z,11.57
2022-11-08T15:27:51.247Z,13.13
2022-11-08T15:30:19.981Z,13.40
2022-11-08T15:32:46.796Z,14.43
2022-11-08T15:35:26.954Z,16.13
2022-11-08T15:37:59.492Z,16.15
2022-11-08T15:40:28.367Z,19.05
2022-11-08T15:42:55.177Z,18.83
2022-11-08T15:45:26.057Z,19.33
2022-11-08T15:47:53.268Z,18.65
2022-11-08T15:50:29.924Z,19.77
2022-11-08T15:52:58.349Z,21.00
2022-11-08T15:55:35.729Z,24.40
2022-11-08T15:58:02.973Z,25.65
2022-11-08T16:00:31.897Z,27.98
2022-11-08T16:02:58.718Z,28.50
2022-11-08T16:05:31.977Z,29.58
2022-11-08T16:07:58.681Z,27.42
2022-11-08T16:10:34.689Z,29.00
2022-11-08T16:13:01.923Z,30.20
2022-11-08T16:15:30.901Z,30.63
2022-11-08T16:17:57.664Z,30.80
2022-11-08T16:20:25.068Z,31.63
2022-11-08T16:22:51.819Z,31.00
2022-11-08T16:25:18.864Z,31.05
2022-11-08T16:27:49.757Z,29.92
2022-11-08T16:30:17.050Z,31.60
2022-11-08T16:32:43.729Z,31.00
2022-11-08T16:35:10.844Z,33.42
2022-11-08T16:37:38.205Z,34.30
2022-11-08T16:40:24.621Z,35.28
2022-11-08T16:42:52.625Z,37.30
2022-11-08T16:45:37.201Z,37.80
2022-11-08T16:48:07.574Z,40.47
2022-11-08T16:50:34.717Z,39.38
2022-11-08T16:53:01.409Z,41.78
2022-11-08T16:55:29.566Z,41.70
2022-11-08T16:57:56.297Z,42.47
2022-11-08T17:00:23.438Z,43.25
2022-11-08T17:02:51.396Z,43.28
2022-11-08T17:05:23.060Z,42.17
2022-11-08T17:07:53.110Z,41.92
2022-11-08T17:10:24.591Z,40.22
2022-11-08T17:12:51.476Z,39.53
2022-11-08T17:15:20.128Z,38.88
2022-11-08T17:17:47.048Z,37.67
2022-11-08T17:20:16.164Z,38.30
2022-11-08T17:22:43.437Z,38.10
2022-11-08T17:25:14.658Z,38.08
2022-11-08T17:27:42.112Z,37.85
2022-11-08T17:30:10.460Z,36.45
2022-11-08T17:32:37.452Z,35.88
2022-11-08T17:35:05.420Z,35.20
2022-11-08T17:37:32.639Z,33.65
2022-11-08T17:39:59.663Z,35.22
2022-11-08T17:42:27.968Z,33.50
2022-11-08T17:44:56.819Z,34.13
2022-11-08T17:47:24.326Z,32.53
2022-11-08T17:49:51.690Z,31.42
2022-11-08T17:52:19.599Z,31.83
2022-11-08T17:54:51.735Z,31.02
2022-11-08T17:57:19.682Z,33.30
2022-11-08T17:59:48.290Z,31.65
2022-11-08T18:02:15.253Z,32.47
2022-11-08T18:04:42.353Z,31.25
2022-11-08T18:07:09.178Z,32.05
2022-11-08T18:09:36.523Z,30.23
2022-11-08T18:12:03.407Z,29.05
2022-11-08T18:14:30.442Z,29.45
2022-11-08T18:16:57.246Z,29.10
2022-11-08T18:19:24.379Z,28.08
2022-11-08T18:21:51.154Z,28.52
2022-11-08T18:24:18.385Z,27.88
2022-11-08T18:26:45.177Z,27.88
2022-11-08T18:29:12.170Z,29.02
2022-11-08T18:31:38.942Z,26.98
2022-11-08T18:34:06.412Z,26.75
2022-11-08T18:36:33.266Z,25.80
2022-11-08T18:39:00.555Z,26.00
2022-11-08T18:41:29.259Z,24.92
2022-11-08T18:43:56.812Z,27.35
2022-11-08T18:46:24.311Z,26.42
2022-11-08T18:48:51.440Z,27.90
2022-11-08T18:51:19.104Z,27.50
2022-11-08T18:53:46.093Z,26.60
2022-11-08T18:56:13.171Z,27.48
2022-11-08T18:58:40.418Z,27.33
2022-11-08T19:01:07.248Z,28.48
2022-11-08T19:03:35.522Z,26.35
2022-11-08T19:06:02.254Z,25.70
2022-11-08T19:08:30.653Z,25.98
2022-11-08T19:11:01.698Z,25.65
2022-11-08T19:13:29.984Z,26.98
2022-11-08T19:16:05.531Z,25.80
2022-11-08T19:18:33.053Z,27.40
2022-11-08T19:21:05.840Z,26.38
2022-11-08T19:23:33.054Z,27.35
2022-11-08T19:26:01.385Z,24.63
2022-11-08T19:28:32.625Z,26.35
2022-11-08T19:30:59.888Z,25.58
2022-11-08T19:33:27.576Z,23.85
2022-11-08T19:35:54.680Z,25.45
2022-11-08T19:38:22.300Z,25.17
2022-11-08T19:40:49.197Z,24.77
2022-11-08T19:43:16.924Z,24.10
2022-11-08T19:45:47.897Z,24.02
2022-11-08T19:48:18.307Z,23.90
2022-11-08T19:50:45.392Z,22.85
2022-11-08T19:53:13.881Z,23.00
2022-11-08T19:55:40.808Z,23.13
2022-11-08T19:58:08.045Z,22.52
2022-11-08T20:00:34.924Z,20.88
2022-11-08T20:03:02.449Z,20.10
2022-11-08T20:05:29.712Z,20.50
2022-11-08T20:07:56.680Z,20.52
2022-11-08T20:10:23.877Z,19.33
2022-11-08T20:12:51.063Z,19.23
2022-11-08T20:15:18.304Z,19.50
2022-11-08T20:17:45.160Z,19.23
2022-11-08T20:20:12.565Z,18.15
2022-11-08T20:22:41.048Z,19.58
2022-11-08T20:25:08.763Z,18.30
2022-11-08T20:27:35.500Z,18.38
2022-11-08T20:30:02.631Z,17.85
2022-11-08T20:32:29.391Z,17.65
2022-11-08T20:34:58.671Z,16.40
2022-11-08T20:37:25.527Z,17.17
2022-11-08T20:39:52.555Z,19.10
2022-11-08T20:42:20.754Z,18.85
2022-11-08T20:44:47.843Z,18.88
2022-11-08T20:47:14.842Z,19.17
2022-11-08T20:49:41.924Z,18.85
2022-11-08T20:52:08.675Z,19.75
2022-11-08T20:54:39.926Z,19.50
2022-11-08T20:57:09.462Z,20.33
2022-11-08T20:59:36.693Z,18.92
2022-11-08T21:02:03.464Z,20.13
2022-11-08T21:04:30.607Z,20.08
2022-11-08T21:07:59.587Z,20.50
2022-11-08T21:09:50.094Z,20.48
2022-11-08T21:12:17.704Z,20.45
2022-11-08T21:14:44.466Z,20.27
2022-11-08T21:17:26.916Z,19.20
2022-11-08T21:19:53.701Z,20.50
2022-11-08T21:22:20.719Z,20.33
2022-11-08T21:24:47.869Z,19.50
2022-11-08T21:27:15.285Z,19.58
2022-11-08T21:29:41.988Z,20.13
2022-11-08T21:32:09.064Z,20.15
2022-11-08T21:34:35.935Z,21.48
2022-11-08T21:37:03.174Z,19.92
2022-11-08T21:39:29.887Z,19.17
2022-11-08T21:41:56.988Z,20.27
2022-11-08T21:44:23.732Z,20.58
2022-11-08T21:46:50.772Z,19.65
2022-11-08T21:49:17.524Z,19.10
2022-11-08T21:51:44.557Z,20.42
2022-11-08T21:54:11.259Z,19.40
2022-11-08T21:56:39.080Z,20.40
2022-11-08T21:59:05.890Z,21.30
2022-11-08T22:01:33.076Z,19.83
2022-11-08T22:04:00.027Z,19.88
2022-11-08T22:06:27.671Z,20.08
2022-11-08T22:08:54.456Z,21.55
2022-11-08T22:11:21.503Z,19.17
2022-11-08T22:13:48.241Z,19.70
2022-11-08T22:16:15.277Z,19.73
2022-11-08T22:19:03.714Z,21.08
2022-11-08T22:21:38.956Z,20.80
2022-11-08T22:24:06.900Z,20.27
2022-11-08T22:26:34.191Z,20.98
2022-11-08T22:29:00.981Z,20.63
2022-11-08T22:31:27.661Z,19.85
2022-11-08T22:33:54.704Z,20.67
2022-11-08T22:36:21.445Z,19.48
2022-11-08T22:38:48.479Z,20.42
2022-11-08T22:41:16.932Z,21.52
2022-11-08T22:43:44.227Z,21.08
2022-11-08T22:46:11.045Z,21.42
2022-11-08T22:48:38.140Z,21.75
2022-11-08T22:51:04.859Z,21.45
2022-11-08T22:53:31.975Z,20.40
2022-11-08T22:56:00.863Z,21.52
2022-11-08T22:58:28.739Z,19.40
2022-11-08T23:01:08.236Z,20.40
2022-11-08T23:03:35.270Z,20.27
2022-11-08T23:06:02.139Z,19.23
2022-11-08T23:08:29.192Z,19.35
2022-11-08T23:11:16.771Z,21.10
2022-11-08T23:14:02.719Z,19.80
2022-11-08T23:16:32.391Z,19.63
2022-11-08T23:19:18.523Z,20.55
2022-11-08T23:22:03.812Z,19.08
2022-11-08T23:24:31.709Z,20.20
2022-11-08T23:27:18.069Z,18.40
2022-11-08T23:30:03.974Z,19.13
2022-11-08T23:32:30.801Z,18.88
2022-11-08T23:34:57.832Z,16.45
2022-11-08T23:37:24.700Z,17.90
2022-11-08T23:40:10.115Z,19.55
2022-11-08T23:42:55.424Z,18.27
2022-11-08T23:45:22.495Z,19.25
2022-11-08T23:47:49.179Z,18.63
2022-11-08T23:50:16.227Z,18.48
2022-11-08T23:52:42.919Z,18.58
2022-11-08T23:55:09.930Z,19.10
2022-11-08T23:57:36.660Z,19.77
